Wilson Gaeta — 8PTS — position and weather

sailwx.info

Track history (hours):
 
Tides and Currents Weather Stations Pressure Air Temp Water Temp Dewpoint Dewpoint Depression Visibility Wind Speed Wind Dir Waves Ship Positions

Wilson Gaeta

Last reported at 2014-Jul-25 10:33 UTC. Time now 2014-Jul-25 11:24 UTC.
Position N 58°21' E 018°40'.

Length 88 m; draft 5.3 m.

Type: Cargo ship. MMSI: 314237000.

Date/timePositionNaut miles runAvg speedWind from/ knotsBaromVisibWave heightAir tempDewpointWater temp
2014-Jul-25 10:33N 58°21' E 018°40'10 9.7
2014-Jul-25 09:33N 58°29' E 018°49'9 9.1
2014-Jul-25 08:31N 58°38' E 018°58'9 9.5
2014-Jul-25 07:33N 58°46' E 019°06'10 9.6
2014-Jul-25 06:33N 58°54' E 019°15'19 9.7
2014-Jul-25 04:33N 59°11' E 019°35'13 9.9
2014-Jul-25 03:13N 59°22' E 019°48'9 9.7
2014-Jul-25 02:17N 59°30' E 019°57'7 9.2
2014-Jul-25 01:30N 59°37' E 019°56'9 9.8
2014-Jul-25 00:33N 59°44' E 019°44'10 9.7
2014-Jul-24 23:34N 59°52' E 019°32'10 9.6
2014-Jul-24 22:33N 59°59' E 019°20'10 9.5
2014-Jul-24 21:33N 60°06' E 019°08'9 9.1
2014-Jul-24 20:33N 60°15' E 019°00'10 9.6
2014-Jul-24 19:33N 60°24' E 018°58'94 2.5
2014-Jul-23 05:24N 58°51' E 018°41'1011.5
2014-Jul-23 04:33N 58°44' E 018°27'3411.2
2014-Jul-23 01:32N 58°37' E 017°23'1010.4
2014-Jul-23 00:33N 58°37' E 017°04'1110.8
2014-Jul-22 23:33N 58°37' E 016°43'1110.8
2014-Jul-22 22:33N 58°39' E 016°23'6 6.0
2014-Jul-22 21:32N 58°36' E 016°12'0 0.0
2014-Jul-22 05:17N 58°36' E 016°11'0 0.0
2014-Jul-22 04:29N 58°36' E 016°11'0 0.0
2014-Jul-22 03:29N 58°36' E 016°12'0 0.0
2014-Jul-22 02:29N 58°36' E 016°11'0 0.0
2014-Jul-22 01:23N 58°36' E 016°11'0 0.0
2014-Jul-22 00:29N 58°36' E 016°12'0 0.0
2014-Jul-21 23:29N 58°36' E 016°11'0 0.0
2014-Jul-21 22:29N 58°36' E 016°11'0 0.0
2014-Jul-21 21:17N 58°36' E 016°11'0 0.0
2014-Jul-21 20:29N 58°36' E 016°11'0 0.0
2014-Jul-21 19:29N 58°36' E 016°12'2 0.1
2014-Jul-20 13:09N 58°37' E 016°15'5 9.1
2014-Jul-20 12:33N 58°39' E 016°25'9 9.3
2014-Jul-20 11:33N 58°38' E 016°42'9 9.3
2014-Jul-20 10:33N 58°37' E 016°60'8 7.7
2014-Jul-20 09:33N 58°37' E 017°15'47 7.5
2014-Jul-20 03:16N 57°50' E 017°25'7 9.4
2014-Jul-20 02:33N 57°43' E 017°23'9 9.4
2014-Jul-20 01:33N 57°34' E 017°22'9 9.3
2014-Jul-20 00:33N 57°25' E 017°21'9 9.1
2014-Jul-19 23:33N 57°16' E 017°18'9 9.2
2014-Jul-19 22:33N 57°07' E 017°15'9 9.0
2014-Jul-19 21:33N 56°58' E 017°12'9 9.0
2014-Jul-19 20:33N 56°49' E 017°08'9 8.9
2014-Jul-19 19:33N 56°40' E 017°05'9 8.9
2014-Jul-19 18:33N 56°32' E 017°01'9 9.0
2014-Jul-19 17:31N 56°22' E 016°58'9 9.1
2014-Jul-19 16:33N 56°14' E 016°55'9 9.2
2014-Jul-19 15:33N 56°05' E 016°50'9 9.3
2014-Jul-19 14:33N 55°60' E 016°36'9 9.3
2014-Jul-19 13:33N 55°55' E 016°22'9 9.1
2014-Jul-19 12:33N 55°51' E 016°08'9 9.1
2014-Jul-19 11:33N 55°47' E 015°53'10 9.1
2014-Jul-19 10:25N 55°41' E 015°37'8 9.1
2014-Jul-19 09:33N 55°38' E 015°25'9 8.9
2014-Jul-19 08:33N 55°33' E 015°11'9 9.0
2014-Jul-19 07:33N 55°29' E 014°57'9 9.1
2014-Jul-19 06:33N 55°25' E 014°43'9 9.0
2014-Jul-19 05:33N 55°18' E 014°32'9 8.9
2014-Jul-19 04:33N 55°12' E 014°22'9 9.0
2014-Jul-19 03:33N 55°05' E 014°12'9 9.0
2014-Jul-19 02:33N 54°60' E 013°59'9 9.1
2014-Jul-19 01:33N 54°57' E 013°44'9 9.2
2014-Jul-19 00:33N 54°54' E 013°28'9 9.1
2014-Jul-18 23:33N 54°51' E 013°14'9 8.9
2014-Jul-18 22:33N 54°48' E 012°59'9 9.0
2014-Jul-18 21:33N 54°45' E 012°45'9 9.2
2014-Jul-18 20:33N 54°39' E 012°32'9 9.1
2014-Jul-18 19:33N 54°33' E 012°20'9 9.0
2014-Jul-18 18:33N 54°25' E 012°11'9 8.7
2014-Jul-18 17:33N 54°24' E 011°57'9 9.0
2014-Jul-18 16:33N 54°26' E 011°41'9 9.4
2014-Jul-18 15:33N 54°30' E 011°27'9 8.7
2014-Jul-18 14:33N 54°34' E 011°13'9 8.6
2014-Jul-18 13:33N 54°35' E 010°59'11 9.1
2014-Jul-18 12:19N 54°34' E 010°39'7 9.1
2014-Jul-18 11:33N 54°32' E 010°28'27 5.3
2014-Jul-18 06:33N 54°21' E 009°46'9 8.0
2014-Jul-18 05:30N 54°14' E 009°37'7 6.3
2014-Jul-18 04:25N 54°11' E 009°27'7 7.7
2014-Jul-18 03:29N 54°05' E 009°19'8 8.1
2014-Jul-18 02:31N 53°58' E 009°15'6 5.7
2014-Jul-18 01:33N 53°54' E 009°09'3 2.8
2014-Jul-18 00:33N 53°52' E 009°04'6 6.4
2014-Jul-17 23:33N 53°50' E 008°54'6 6.1
2014-Jul-17 22:33N 53°52' E 008°44'6 6.1
2014-Jul-17 21:33N 53°57' E 008°38'6 6.4
2014-Jul-17 20:33N 53°59' E 008°27'7 7.2
2014-Jul-17 19:33N 53°59' E 008°15'47 8.6
2014-Jul-17 14:03N 53°49' E 006°57'510.0
2014-Jul-17 13:30N 53°48' E 006°48'1010.4
2014-Jul-17 12:33N 53°45' E 006°32'1510.6
2014-Jul-17 11:11N 53°41' E 006°08'710.6
2014-Jul-17 10:33N 53°39' E 005°58'1110.7
2014-Jul-17 09:34N 53°36' E 005°41'1110.8
2014-Jul-17 08:33N 53°33' E 005°23'1110.7
2014-Jul-17 07:33N 53°29' E 005°06'1010.1
2014-Jul-17 06:33N 53°25' E 004°51'9 8.7
2014-Jul-17 05:33N 53°20' E 004°40'9 8.8
2014-Jul-17 04:33N 53°12' E 004°33'9 8.6
2014-Jul-17 03:33N 53°04' E 004°26'8 8.2
2014-Jul-17 02:33N 52°57' E 004°19'8 8.1
2014-Jul-17 01:32N 52°50' E 004°13'8 8.0
2014-Jul-17 00:33N 52°44' E 004°05'8 7.8
2014-Jul-16 23:33N 52°38' E 003°56'8 8.0
2014-Jul-16 22:33N 52°32' E 003°47'9 8.4
2014-Jul-16 21:33N 52°25' E 003°39'9 9.4
2014-Jul-16 20:33N 52°17' E 003°33'1010.0
2014-Jul-16 19:33N 52°08' E 003°26'1010.4
2014-Jul-16 18:33N 51°58' E 003°23'1110.9
2014-Jul-16 17:33N 51°47' E 003°17'11 9.2
2014-Jul-16 16:20N 51°37' E 003°23'8 9.7
2014-Jul-16 15:33N 51°30' E 003°28'7 6.5
2014-Jul-16 14:33N 51°26' E 003°37'8 7.6
2014-Jul-16 13:33N 51°22' E 003°47'3 2.8
2014-Jul-16 12:34N 51°19' E 003°49'6 5.5
2014-Jul-16 11:33N 51°14' E 003°48'8 8.3
2014-Jul-16 10:34N 51°06' E 003°44'1 0.8
2014-Jul-16 09:31N 51°05' E 003°44'0 0.0
2014-Jul-16 08:31N 51°05' E 003°44'0 0.0
2014-Jul-16 07:31N 51°05' E 003°44'0 0.0
2014-Jul-16 06:31N 51°05' E 003°44'0 0.0
2014-Jul-16 05:31N 51°05' E 003°44'0 0.0
2014-Jul-16 04:31N 51°05' E 003°44'0 0.0
2014-Jul-16 03:31N 51°05' E 003°44'0 0.0
2014-Jul-16 02:25N 51°05' E 003°44'0 0.0
2014-Jul-16 01:31N 51°05' E 003°44'0 0.0
2014-Jul-16 00:31N 51°05' E 003°44'0 0.0
2014-Jul-15 23:31N 51°05' E 003°44'0 0.0
2014-Jul-15 22:31N 51°05' E 003°44'0 0.0
2014-Jul-15 21:31N 51°05' E 003°44'0 0.0
2014-Jul-15 20:31N 51°05' E 003°44'0 0.0
2014-Jul-15 19:31N 51°05' E 003°44'0 0.0
2014-Jul-15 18:31N 51°05' E 003°44'0 0.0
2014-Jul-15 17:31N 51°05' E 003°44'0 0.0
2014-Jul-15 16:31N 51°05' E 003°44'0 0.0
2014-Jul-15 15:31N 51°05' E 003°44'0 0.0
2014-Jul-15 14:31N 51°05' E 003°44'0 0.0
2014-Jul-15 13:31N 51°05' E 003°44'0 0.0
2014-Jul-15 12:31N 51°05' E 003°44'0 0.0
2014-Jul-15 11:31N 51°05' E 003°44'  
Track history (hours):
 
Tides and Currents Weather Stations Pressure Air Temp Water Temp Dewpoint Dewpoint Depression Visibility Wind Speed Wind Dir Waves Ship Positions

Wilson Gaeta

Last reported at 2014-Jul-25 10:33 UTC. Time now 2014-Jul-25 11:24 UTC.
Position N 58°21' E 018°40'.

Length 88 m; draft 5.3 m.

Type: Cargo ship. MMSI: 314237000.

Date/timePositionNaut miles runAvg speedWind from/ knotsBaromVisibWave heightAir tempDewpointWater temp
2014-Jul-25 10:33N 58°21' E 018°40'10 9.7
2014-Jul-25 09:33N 58°29' E 018°49'9 9.1
2014-Jul-25 08:31N 58°38' E 018°58'9 9.5
2014-Jul-25 07:33N 58°46' E 019°06'10 9.6
2014-Jul-25 06:33N 58°54' E 019°15'19 9.7
2014-Jul-25 04:33N 59°11' E 019°35'13 9.9
2014-Jul-25 03:13N 59°22' E 019°48'9 9.7
2014-Jul-25 02:17N 59°30' E 019°57'7 9.2
2014-Jul-25 01:30N 59°37' E 019°56'9 9.8
2014-Jul-25 00:33N 59°44' E 019°44'10 9.7
2014-Jul-24 23:34N 59°52' E 019°32'10 9.6
2014-Jul-24 22:33N 59°59' E 019°20'10 9.5
2014-Jul-24 21:33N 60°06' E 019°08'9 9.1
2014-Jul-24 20:33N 60°15' E 019°00'10 9.6
2014-Jul-24 19:33N 60°24' E 018°58'94 2.5
2014-Jul-23 05:24N 58°51' E 018°41'1011.5
2014-Jul-23 04:33N 58°44' E 018°27'3411.2
2014-Jul-23 01:32N 58°37' E 017°23'1010.4
2014-Jul-23 00:33N 58°37' E 017°04'1110.8
2014-Jul-22 23:33N 58°37' E 016°43'1110.8
2014-Jul-22 22:33N 58°39' E 016°23'6 6.0
2014-Jul-22 21:32N 58°36' E 016°12'0 0.0
2014-Jul-22 05:17N 58°36' E 016°11'0 0.0
2014-Jul-22 04:29N 58°36' E 016°11'0 0.0
2014-Jul-22 03:29N 58°36' E 016°12'0 0.0
2014-Jul-22 02:29N 58°36' E 016°11'0 0.0
2014-Jul-22 01:23N 58°36' E 016°11'0 0.0
2014-Jul-22 00:29N 58°36' E 016°12'0 0.0
2014-Jul-21 23:29N 58°36' E 016°11'0 0.0
2014-Jul-21 22:29N 58°36' E 016°11'0 0.0
2014-Jul-21 21:17N 58°36' E 016°11'0 0.0
2014-Jul-21 20:29N 58°36' E 016°11'0 0.0
2014-Jul-21 19:29N 58°36' E 016°12'2 0.1
2014-Jul-20 13:09N 58°37' E 016°15'5 9.1
2014-Jul-20 12:33N 58°39' E 016°25'9 9.3
2014-Jul-20 11:33N 58°38' E 016°42'9 9.3
2014-Jul-20 10:33N 58°37' E 016°60'8 7.7
2014-Jul-20 09:33N 58°37' E 017°15'47 7.5
2014-Jul-20 03:16N 57°50' E 017°25'7 9.4
2014-Jul-20 02:33N 57°43' E 017°23'9 9.4
2014-Jul-20 01:33N 57°34' E 017°22'9 9.3
2014-Jul-20 00:33N 57°25' E 017°21'9 9.1
2014-Jul-19 23:33N 57°16' E 017°18'9 9.2
2014-Jul-19 22:33N 57°07' E 017°15'9 9.0
2014-Jul-19 21:33N 56°58' E 017°12'9 9.0
2014-Jul-19 20:33N 56°49' E 017°08'9 8.9
2014-Jul-19 19:33N 56°40' E 017°05'9 8.9
2014-Jul-19 18:33N 56°32' E 017°01'9 9.0
2014-Jul-19 17:31N 56°22' E 016°58'9 9.1
2014-Jul-19 16:33N 56°14' E 016°55'9 9.2
2014-Jul-19 15:33N 56°05' E 016°50'9 9.3
2014-Jul-19 14:33N 55°60' E 016°36'9 9.3
2014-Jul-19 13:33N 55°55' E 016°22'9 9.1
2014-Jul-19 12:33N 55°51' E 016°08'9 9.1
2014-Jul-19 11:33N 55°47' E 015°53'10 9.1
2014-Jul-19 10:25N 55°41' E 015°37'8 9.1
2014-Jul-19 09:33N 55°38' E 015°25'9 8.9
2014-Jul-19 08:33N 55°33' E 015°11'9 9.0
2014-Jul-19 07:33N 55°29' E 014°57'9 9.1
2014-Jul-19 06:33N 55°25' E 014°43'9 9.0
2014-Jul-19 05:33N 55°18' E 014°32'9 8.9
2014-Jul-19 04:33N 55°12' E 014°22'9 9.0
2014-Jul-19 03:33N 55°05' E 014°12'9 9.0
2014-Jul-19 02:33N 54°60' E 013°59'9 9.1
2014-Jul-19 01:33N 54°57' E 013°44'9 9.2
2014-Jul-19 00:33N 54°54' E 013°28'9 9.1
2014-Jul-18 23:33N 54°51' E 013°14'9 8.9
2014-Jul-18 22:33N 54°48' E 012°59'9 9.0
2014-Jul-18 21:33N 54°45' E 012°45'9 9.2
2014-Jul-18 20:33N 54°39' E 012°32'9 9.1
2014-Jul-18 19:33N 54°33' E 012°20'9 9.0
2014-Jul-18 18:33N 54°25' E 012°11'9 8.7
2014-Jul-18 17:33N 54°24' E 011°57'9 9.0
2014-Jul-18 16:33N 54°26' E 011°41'9 9.4
2014-Jul-18 15:33N 54°30' E 011°27'9 8.7
2014-Jul-18 14:33N 54°34' E 011°13'9 8.6
2014-Jul-18 13:33N 54°35' E 010°59'11 9.1
2014-Jul-18 12:19N 54°34' E 010°39'7 9.1
2014-Jul-18 11:33N 54°32' E 010°28'27 5.3
2014-Jul-18 06:33N 54°21' E 009°46'9 8.0
2014-Jul-18 05:30N 54°14' E 009°37'7 6.3
2014-Jul-18 04:25N 54°11' E 009°27'7 7.7
2014-Jul-18 03:29N 54°05' E 009°19'8 8.1
2014-Jul-18 02:31N 53°58' E 009°15'6 5.7
2014-Jul-18 01:33N 53°54' E 009°09'3 2.8
2014-Jul-18 00:33N 53°52' E 009°04'6 6.4
2014-Jul-17 23:33N 53°50' E 008°54'6 6.1
2014-Jul-17 22:33N 53°52' E 008°44'6 6.1
2014-Jul-17 21:33N 53°57' E 008°38'6 6.4
2014-Jul-17 20:33N 53°59' E 008°27'7 7.2
2014-Jul-17 19:33N 53°59' E 008°15'47 8.6
2014-Jul-17 14:03N 53°49' E 006°57'510.0
2014-Jul-17 13:30N 53°48' E 006°48'1010.4
2014-Jul-17 12:33N 53°45' E 006°32'1510.6
2014-Jul-17 11:11N 53°41' E 006°08'710.6
2014-Jul-17 10:33N 53°39' E 005°58'1110.7
2014-Jul-17 09:34N 53°36' E 005°41'1110.8
2014-Jul-17 08:33N 53°33' E 005°23'1110.7
2014-Jul-17 07:33N 53°29' E 005°06'1010.1
2014-Jul-17 06:33N 53°25' E 004°51'9 8.7
2014-Jul-17 05:33N 53°20' E 004°40'9 8.8
2014-Jul-17 04:33N 53°12' E 004°33'9 8.6
2014-Jul-17 03:33N 53°04' E 004°26'8 8.2
2014-Jul-17 02:33N 52°57' E 004°19'8 8.1
2014-Jul-17 01:32N 52°50' E 004°13'8 8.0
2014-Jul-17 00:33N 52°44' E 004°05'8 7.8
2014-Jul-16 23:33N 52°38' E 003°56'8 8.0
2014-Jul-16 22:33N 52°32' E 003°47'9 8.4
2014-Jul-16 21:33N 52°25' E 003°39'9 9.4
2014-Jul-16 20:33N 52°17' E 003°33'1010.0
2014-Jul-16 19:33N 52°08' E 003°26'1010.4
2014-Jul-16 18:33N 51°58' E 003°23'1110.9
2014-Jul-16 17:33N 51°47' E 003°17'11 9.2
2014-Jul-16 16:20N 51°37' E 003°23'8 9.7
2014-Jul-16 15:33N 51°30' E 003°28'7 6.5
2014-Jul-16 14:33N 51°26' E 003°37'8 7.6
2014-Jul-16 13:33N 51°22' E 003°47'3 2.8
2014-Jul-16 12:34N 51°19' E 003°49'6 5.5
2014-Jul-16 11:33N 51°14' E 003°48'8 8.3
2014-Jul-16 10:34N 51°06' E 003°44'1 0.8
2014-Jul-16 09:31N 51°05' E 003°44'0 0.0
2014-Jul-16 08:31N 51°05' E 003°44'0 0.0
2014-Jul-16 07:31N 51°05' E 003°44'0 0.0
2014-Jul-16 06:31N 51°05' E 003°44'0 0.0
2014-Jul-16 05:31N 51°05' E 003°44'0 0.0
2014-Jul-16 04:31N 51°05' E 003°44'0 0.0
2014-Jul-16 03:31N 51°05' E 003°44'0 0.0
2014-Jul-16 02:25N 51°05' E 003°44'0 0.0
2014-Jul-16 01:31N 51°05' E 003°44'0 0.0
2014-Jul-16 00:31N 51°05' E 003°44'0 0.0
2014-Jul-15 23:31N 51°05' E 003°44'0 0.0
2014-Jul-15 22:31N 51°05' E 003°44'0 0.0
2014-Jul-15 21:31N 51°05' E 003°44'0 0.0
2014-Jul-15 20:31N 51°05' E 003°44'0 0.0
2014-Jul-15 19:31N 51°05' E 003°44'0 0.0
2014-Jul-15 18:31N 51°05' E 003°44'0 0.0
2014-Jul-15 17:31N 51°05' E 003°44'0 0.0
2014-Jul-15 16:31N 51°05' E 003°44'0 0.0
2014-Jul-15 15:31N 51°05' E 003°44'0 0.0
2014-Jul-15 14:31N 51°05' E 003°44'0 0.0
2014-Jul-15 13:31N 51°05' E 003°44'0 0.0
2014-Jul-15 12:31N 51°05' E 003°44'0 0.0
2014-Jul-15 11:31N 51°05' E 003°44'  

Dump ship's entire track history